WAT5327 KLAX-PHNL
Flight info
| Callsign | WAT5327 |
|---|---|
| Flight time | N/A |
| Altitude | 36000 |
| Route | SUMMR2 DINTY DUETS R576 DADIE/N0450F380 R576 DENNS MAGGI3 |
| Aircraft | A319/M-SDE3FGHIRWY/LB1 |
Departure
| Time | 2026-05-04 19:56 |
|---|---|
| Airport | Los Angeles International Airport (KLAX) |
Arrival
| Time | N/A |
|---|---|
| Airport | Daniel K. Inouye International Airport (PHNL) |
| Time | Latitude | Longitude | Altitude | Speed | Heading |
|---|---|---|---|---|---|
| 2026-05-04 19:33 | 33.94087 | -118.40260 | 126 ft | 0 kts | 98° |
| 2026-05-04 19:46 | 33.94089 | -118.40278 | 122 ft | 2 kts | 96° |
| 2026-05-04 19:46 | 33.94095 | -118.40306 | 124 ft | 4 kts | 129° |
| 2026-05-04 19:46 | 33.94116 | -118.40323 | 125 ft | 3 kts | 171° |
| 2026-05-04 19:47 | 33.94124 | -118.40324 | 123 ft | 0 kts | 173° |
| 2026-05-04 19:49 | 33.94117 | -118.40323 | 123 ft | 3 kts | 173° |
| 2026-05-04 19:49 | 33.94081 | -118.40318 | 122 ft | 7 kts | 173° |
| 2026-05-04 19:49 | 33.94017 | -118.40309 | 124 ft | 11 kts | 173° |
| 2026-05-04 19:49 | 33.93926 | -118.40295 | 123 ft | 13 kts | 173° |
| 2026-05-04 19:50 | 33.93856 | -118.40246 | 123 ft | 14 kts | 100° |
| 2026-05-04 19:50 | 33.93865 | -118.40119 | 124 ft | 17 kts | 82° |
| 2026-05-04 19:50 | 33.93883 | -118.39972 | 121 ft | 19 kts | 82° |
| 2026-05-04 19:50 | 33.93899 | -118.39797 | 125 ft | 22 kts | 83° |
| 2026-05-04 19:51 | 33.93919 | -118.39600 | 126 ft | 25 kts | 82° |
| 2026-05-04 19:51 | 33.93942 | -118.39383 | 122 ft | 27 kts | 83° |
| 2026-05-04 19:51 | 33.93967 | -118.39144 | 126 ft | 30 kts | 83° |
| 2026-05-04 19:51 | 33.93994 | -118.38884 | 126 ft | 33 kts | 83° |
| 2026-05-04 19:52 | 33.94019 | -118.38622 | 126 ft | 31 kts | 83° |
| 2026-05-04 19:52 | 33.94045 | -118.38366 | 123 ft | 30 kts | 83° |
| 2026-05-04 19:52 | 33.94067 | -118.38153 | 125 ft | 26 kts | 82° |
| 2026-05-04 19:52 | 33.94074 | -118.38019 | 125 ft | 9 kts | 121° |
| 2026-05-04 19:53 | 33.94071 | -118.38016 | 125 ft | 0 kts | 129° |
| 2026-05-04 19:53 | 33.94062 | -118.38007 | 123 ft | 5 kts | 146° |
| 2026-05-04 19:53 | 33.94001 | -118.38011 | 124 ft | 13 kts | 212° |
| 2026-05-04 19:54 | 33.93980 | -118.38073 | 125 ft | 0 kts | 263° |
| 2026-05-04 19:55 | 33.93965 | -118.38223 | 125 ft | 51 kts | 263° |
| 2026-05-04 19:55 | 33.93895 | -118.38902 | 124 ft | 109 kts | 262° |
| 2026-05-04 19:55 | 33.93773 | -118.40002 | 159 ft | 153 kts | 262° |
| 2026-05-04 19:55 | 33.93645 | -118.41330 | 689 ft | 161 kts | 262° |
| 2026-05-04 19:56 | 33.93511 | -118.42663 | 1366 ft | 162 kts | 262° |
| 2026-05-04 19:56 | 33.93366 | -118.44096 | 1702 ft | 184 kts | 262° |
| 2026-05-04 19:56 | 33.93204 | -118.45709 | 2024 ft | 204 kts | 263° |
| 2026-05-04 19:56 | 33.93038 | -118.47497 | 2395 ft | 227 kts | 263° |
| 2026-05-04 19:57 | 33.92872 | -118.49466 | 2988 ft | 242 kts | 264° |
| 2026-05-04 19:57 | 33.92705 | -118.51496 | 3894 ft | 247 kts | 264° |
| 2026-05-04 19:57 | 33.92536 | -118.53566 | 4834 ft | 250 kts | 265° |
| 2026-05-04 19:57 | 33.92364 | -118.55675 | 5665 ft | 255 kts | 265° |
| 2026-05-04 19:58 | 33.92189 | -118.57799 | 6579 ft | 258 kts | 265° |
| 2026-05-04 19:58 | 33.92011 | -118.59957 | 7431 ft | 260 kts | 265° |
| 2026-05-04 19:58 | 33.91835 | -118.62094 | 8331 ft | 260 kts | 264° |
| 2026-05-04 19:58 | 33.91771 | -118.64289 | 9169 ft | 264 kts | 269° |
| 2026-05-04 19:59 | 33.91767 | -118.66512 | 10058 ft | 267 kts | 269° |
| 2026-05-04 19:59 | 33.91758 | -118.68820 | 10456 ft | 287 kts | 268° |
| 2026-05-04 19:59 | 33.91747 | -118.71311 | 10727 ft | 307 kts | 269° |
| 2026-05-04 19:59 | 33.91735 | -118.73952 | 11337 ft | 314 kts | 269° |
| 2026-05-04 20:00 | 33.91723 | -118.76561 | 12022 ft | 318 kts | 268° |
| 2026-05-04 20:00 | 33.91709 | -118.79276 | 12736 ft | 322 kts | 268° |
| 2026-05-04 20:00 | 33.91694 | -118.81956 | 13421 ft | 326 kts | 268° |
| 2026-05-04 20:00 | 33.91695 | -118.84697 | 14066 ft | 330 kts | 269° |
| 2026-05-04 20:01 | 33.91754 | -118.87472 | 14694 ft | 333 kts | 270° |
| 2026-05-04 20:01 | 33.91845 | -118.90258 | 15355 ft | 334 kts | 270° |
| 2026-05-04 20:01 | 33.91947 | -118.93037 | 16020 ft | 335 kts | 270° |
| 2026-05-04 20:01 | 33.92048 | -118.95841 | 16703 ft | 336 kts | 269° |
| 2026-05-04 20:02 | 33.92155 | -118.98664 | 17336 ft | 339 kts | 271° |
| 2026-05-04 20:02 | 33.92592 | -119.01468 | 17980 ft | 346 kts | 282° |
| 2026-05-04 20:02 | 33.93540 | -119.04171 | 18583 ft | 355 kts | 294° |
| 2026-05-04 20:02 | 33.94842 | -119.06710 | 19157 ft | 358 kts | 296° |
| 2026-05-04 20:03 | 33.96166 | -119.09258 | 19742 ft | 359 kts | 295° |
| 2026-05-04 20:03 | 33.97485 | -119.11813 | 20321 ft | 360 kts | 295° |
| 2026-05-04 20:03 | 33.98808 | -119.14383 | 20890 ft | 362 kts | 294° |
| 2026-05-04 20:03 | 34.00174 | -119.16940 | 21465 ft | 367 kts | 298° |
| 2026-05-04 20:04 | 34.01903 | -119.19273 | 22008 ft | 380 kts | 308° |
| 2026-05-04 20:04 | 34.04023 | -119.21252 | 22573 ft | 390 kts | 315° |
| 2026-05-04 20:04 | 34.06244 | -119.23142 | 23082 ft | 392 kts | 314° |
| 2026-05-04 20:04 | 34.08478 | -119.25051 | 23617 ft | 394 kts | 314° |
| 2026-05-04 20:05 | 34.10710 | -119.26968 | 24026 ft | 396 kts | 314° |
| 2026-05-04 20:05 | 34.12960 | -119.28910 | 24406 ft | 399 kts | 313° |
| 2026-05-04 20:05 | 34.15228 | -119.30871 | 24770 ft | 402 kts | 313° |
| 2026-05-04 20:05 | 34.17517 | -119.32847 | 25134 ft | 406 kts | 313° |
| 2026-05-04 20:06 | 34.19820 | -119.34836 | 25493 ft | 409 kts | 313° |
| 2026-05-04 20:06 | 34.22141 | -119.36842 | 25853 ft | 412 kts | 313° |
| 2026-05-04 20:06 | 34.24487 | -119.38872 | 26197 ft | 416 kts | 313° |
| 2026-05-04 20:06 | 34.26845 | -119.40910 | 26538 ft | 419 kts | 313° |
| 2026-05-04 20:07 | 34.29230 | -119.42970 | 26878 ft | 422 kts | 313° |
| 2026-05-04 20:07 | 34.30812 | -119.44337 | 27102 ft | 424 kts | 312° |
| 2026-05-04 20:07 | 34.33229 | -119.46425 | 27437 ft | 427 kts | 312° |
| 2026-05-04 20:07 | 34.36178 | -119.49462 | 27879 ft | 413 kts | 300° |
| 2026-05-04 20:08 | 34.37395 | -119.51258 | 28111 ft | 404 kts | 293° |
| 2026-05-04 20:08 | 34.39178 | -119.55105 | 28601 ft | 389 kts | 281° |
| 2026-05-04 20:08 | 34.40003 | -119.58178 | 28929 ft | 380 kts | 272° |
| 2026-05-04 20:08 | 34.40382 | -119.61307 | 29285 ft | 372 kts | 264° |
| 2026-05-04 20:09 | 34.40340 | -119.64406 | 29642 ft | 366 kts | 257° |
| 2026-05-04 20:09 | 34.40190 | -119.66487 | 29888 ft | 367 kts | 257° |
| 2026-05-04 20:09 | 34.39972 | -119.69533 | 30224 ft | 369 kts | 257° |
| 2026-05-04 20:09 | 34.39752 | -119.72632 | 30505 ft | 371 kts | 257° |
| 2026-05-04 20:10 | 34.39533 | -119.75753 | 30779 ft | 373 kts | 257° |
| 2026-05-04 20:10 | 34.39314 | -119.78886 | 31042 ft | 375 kts | 257° |
| 2026-05-04 20:10 | 34.39092 | -119.82046 | 31292 ft | 377 kts | 257° |
| 2026-05-04 20:10 | 34.38869 | -119.85223 | 31532 ft | 380 kts | 258° |
| 2026-05-04 20:11 | 34.38644 | -119.88410 | 31802 ft | 381 kts | 258° |
| 2026-05-04 20:11 | 34.38418 | -119.91616 | 32145 ft | 381 kts | 258° |
| 2026-05-04 20:11 | 34.38191 | -119.94806 | 32476 ft | 381 kts | 258° |
| 2026-05-04 20:11 | 34.37959 | -119.98004 | 32802 ft | 381 kts | 258° |
| 2026-05-04 20:12 | 34.37723 | -120.01205 | 33117 ft | 382 kts | 258° |
| 2026-05-04 20:12 | 34.37487 | -120.04408 | 33451 ft | 382 kts | 258° |
| 2026-05-04 20:12 | 34.37251 | -120.07608 | 33797 ft | 382 kts | 258° |
| 2026-05-04 20:12 | 34.37013 | -120.10820 | 34129 ft | 382 kts | 258° |
| 2026-05-04 20:13 | 34.36779 | -120.14030 | 34394 ft | 384 kts | 259° |
| 2026-05-04 20:13 | 34.36545 | -120.17262 | 34621 ft | 386 kts | 259° |
| 2026-05-04 20:13 | 34.36309 | -120.20503 | 34872 ft | 387 kts | 259° |
| 2026-05-04 20:13 | 34.36070 | -120.23750 | 35139 ft | 388 kts | 259° |
| 2026-05-04 20:14 | 34.35826 | -120.27002 | 35411 ft | 388 kts | 259° |
| 2026-05-04 20:14 | 34.35580 | -120.30260 | 35680 ft | 389 kts | 259° |
| 2026-05-04 20:14 | 34.35336 | -120.33475 | 35928 ft | 389 kts | 259° |
| 2026-05-04 20:14 | 34.35087 | -120.36739 | 36031 ft | 390 kts | 259° |
| 2026-05-04 20:15 | 34.34838 | -120.39997 | 36098 ft | 388 kts | 259° |
| 2026-05-04 20:15 | 34.34134 | -120.46433 | 36081 ft | 381 kts | 250° |
| 2026-05-04 20:16 | 34.32101 | -120.52283 | 36088 ft | 377 kts | 241° |
| 2026-05-04 20:16 | 34.29838 | -120.58000 | 36087 ft | 377 kts | 241° |
| 2026-05-04 20:17 | 34.27578 | -120.63722 | 36088 ft | 377 kts | 242° |
| 2026-05-04 20:17 | 34.25317 | -120.69437 | 36085 ft | 377 kts | 242° |
| 2026-05-04 20:18 | 34.23062 | -120.75143 | 36075 ft | 376 kts | 242° |
| 2026-05-04 20:18 | 34.20802 | -120.80845 | 36075 ft | 376 kts | 241° |
| 2026-05-04 20:19 | 34.18530 | -120.86541 | 36083 ft | 376 kts | 241° |
| 2026-05-04 20:19 | 34.16259 | -120.92223 | 36070 ft | 376 kts | 241° |
| 2026-05-04 20:20 | 34.13986 | -120.97918 | 36106 ft | 376 kts | 241° |
| 2026-05-04 20:20 | 34.11730 | -121.03555 | 36099 ft | 375 kts | 241° |
| 2026-05-04 20:21 | 34.09455 | -121.09222 | 36089 ft | 375 kts | 241° |
| 2026-05-04 20:21 | 34.06049 | -121.17704 | 36096 ft | 375 kts | 241° |
| 2026-05-04 20:22 | 34.03773 | -121.23360 | 36096 ft | 374 kts | 241° |
| 2026-05-04 20:22 | 34.01501 | -121.29001 | 36105 ft | 374 kts | 241° |
| 2026-05-04 20:23 | 33.99224 | -121.34635 | 36105 ft | 374 kts | 240° |
| 2026-05-04 20:23 | 33.96952 | -121.40259 | 36099 ft | 373 kts | 241° |
| 2026-05-04 20:24 | 33.94683 | -121.45882 | 36092 ft | 373 kts | 240° |
| 2026-05-04 20:24 | 33.92400 | -121.51494 | 36097 ft | 373 kts | 240° |
| 2026-05-04 20:25 | 33.90119 | -121.57101 | 36115 ft | 372 kts | 240° |
| 2026-05-04 20:25 | 33.87838 | -121.62692 | 36114 ft | 372 kts | 240° |
| 2026-05-04 20:26 | 33.85560 | -121.68279 | 36106 ft | 372 kts | 240° |
| 2026-05-04 20:26 | 33.83289 | -121.73838 | 36104 ft | 372 kts | 240° |
| 2026-05-04 20:27 | 33.81009 | -121.79414 | 36098 ft | 371 kts | 240° |
| 2026-05-04 20:27 | 33.78742 | -121.84949 | 36108 ft | 371 kts | 240° |
| 2026-05-04 20:28 | 33.76461 | -121.90517 | 36103 ft | 371 kts | 240° |
| 2026-05-04 20:28 | 33.74169 | -121.96081 | 36100 ft | 371 kts | 240° |
| 2026-05-04 20:29 | 33.71875 | -122.01642 | 36098 ft | 371 kts | 240° |
| 2026-05-04 20:29 | 33.69578 | -122.07201 | 36097 ft | 371 kts | 240° |
| 2026-05-04 20:30 | 33.67277 | -122.12758 | 36108 ft | 372 kts | 240° |
| 2026-05-04 20:30 | 33.64977 | -122.18322 | 36081 ft | 372 kts | 240° |
| 2026-05-04 20:31 | 33.62681 | -122.23890 | 36089 ft | 372 kts | 240° |
| 2026-05-04 20:31 | 33.60377 | -122.29445 | 36092 ft | 372 kts | 240° |
| 2026-05-04 20:32 | 33.58062 | -122.34995 | 36116 ft | 372 kts | 240° |
| 2026-05-04 20:32 | 33.55746 | -122.40544 | 36104 ft | 373 kts | 240° |
| 2026-05-04 20:33 | 33.53425 | -122.46107 | 36102 ft | 373 kts | 240° |
| 2026-05-04 20:33 | 33.51104 | -122.51660 | 36100 ft | 373 kts | 240° |
| 2026-05-04 20:34 | 33.48801 | -122.57180 | 36094 ft | 374 kts | 242° |
| 2026-05-04 20:34 | 33.47311 | -122.63202 | 36101 ft | 379 kts | 251° |
| 2026-05-04 20:35 | 33.46059 | -122.69342 | 36097 ft | 380 kts | 251° |
| 2026-05-04 20:35 | 33.44782 | -122.75479 | 36092 ft | 380 kts | 251° |
| 2026-05-04 20:36 | 33.43508 | -122.81628 | 36094 ft | 380 kts | 251° |
| 2026-05-04 20:36 | 33.42233 | -122.87774 | 36096 ft | 381 kts | 251° |
| 2026-05-04 20:37 | 33.40950 | -122.93935 | 36104 ft | 382 kts | 251° |
| 2026-05-04 20:37 | 33.39667 | -123.00096 | 36099 ft | 382 kts | 251° |
| 2026-05-04 20:38 | 33.38374 | -123.06269 | 36104 ft | 382 kts | 251° |
| 2026-05-04 20:38 | 33.37090 | -123.12399 | 36104 ft | 383 kts | 251° |
| 2026-05-04 20:39 | 33.35802 | -123.18573 | 36105 ft | 383 kts | 252° |
| 2026-05-04 20:39 | 33.34497 | -123.24760 | 36107 ft | 385 kts | 252° |
| 2026-05-04 20:40 | 33.33177 | -123.30976 | 36099 ft | 386 kts | 252° |
| 2026-05-04 20:40 | 33.31858 | -123.37200 | 36096 ft | 387 kts | 252° |
| 2026-05-04 20:41 | 33.30536 | -123.43443 | 36097 ft | 388 kts | 252° |
| 2026-05-04 20:41 | 33.29209 | -123.49691 | 36099 ft | 388 kts | 252° |
| 2026-05-04 20:42 | 33.27879 | -123.55945 | 36104 ft | 388 kts | 252° |
| 2026-05-04 20:42 | 33.26540 | -123.62188 | 36106 ft | 388 kts | 252° |
| 2026-05-04 20:43 | 33.25200 | -123.68396 | 36112 ft | 388 kts | 252° |
| 2026-05-04 20:43 | 33.23851 | -123.74658 | 36104 ft | 390 kts | 252° |
| 2026-05-04 20:44 | 33.22506 | -123.80933 | 36100 ft | 390 kts | 252° |
| 2026-05-04 20:44 | 33.21152 | -123.87209 | 36100 ft | 391 kts | 252° |
| 2026-05-04 20:45 | 33.19788 | -123.93497 | 36105 ft | 391 kts | 252° |
| 2026-05-04 20:45 | 33.18416 | -123.99794 | 36103 ft | 393 kts | 252° |
| 2026-05-04 20:46 | 33.17037 | -124.06120 | 36098 ft | 394 kts | 252° |
| 2026-05-04 20:46 | 33.15655 | -124.12457 | 36098 ft | 395 kts | 252° |
| 2026-05-04 20:47 | 33.14262 | -124.18802 | 36098 ft | 395 kts | 252° |
| 2026-05-04 20:47 | 33.12861 | -124.25149 | 36098 ft | 396 kts | 253° |
| 2026-05-04 20:48 | 33.11460 | -124.31522 | 36090 ft | 398 kts | 253° |
| 2026-05-04 20:48 | 33.10064 | -124.37869 | 36092 ft | 399 kts | 253° |
| 2026-05-04 20:49 | 33.08649 | -124.44264 | 36098 ft | 399 kts | 253° |
| 2026-05-04 20:49 | 33.07231 | -124.50666 | 36095 ft | 400 kts | 253° |
| 2026-05-04 20:50 | 33.05800 | -124.57076 | 36090 ft | 400 kts | 253° |
| 2026-05-04 20:50 | 33.04365 | -124.63494 | 36095 ft | 401 kts | 253° |
| 2026-05-04 20:51 | 33.02924 | -124.69921 | 36102 ft | 402 kts | 253° |
| 2026-05-04 20:51 | 33.01479 | -124.76349 | 36106 ft | 402 kts | 253° |
| 2026-05-04 20:52 | 33.00025 | -124.82789 | 36097 ft | 403 kts | 253° |
| 2026-05-04 20:52 | 32.98562 | -124.89245 | 36098 ft | 404 kts | 253° |
| 2026-05-04 20:53 | 32.97098 | -124.95709 | 36103 ft | 404 kts | 253° |
| 2026-05-04 20:53 | 32.95631 | -125.02183 | 36099 ft | 405 kts | 254° |
| 2026-05-04 20:54 | 32.94159 | -125.08664 | 36101 ft | 406 kts | 254° |
| 2026-05-04 20:54 | 32.92677 | -125.15158 | 36103 ft | 407 kts | 254° |
| 2026-05-04 20:55 | 32.91191 | -125.21658 | 36107 ft | 407 kts | 254° |
| 2026-05-04 20:55 | 32.89700 | -125.28125 | 36103 ft | 408 kts | 254° |
| 2026-05-04 20:56 | 32.88194 | -125.34640 | 36106 ft | 408 kts | 254° |
| 2026-05-04 20:56 | 32.86695 | -125.41156 | 36108 ft | 409 kts | 254° |
| 2026-05-04 20:57 | 32.85193 | -125.47651 | 36109 ft | 409 kts | 254° |
| 2026-05-04 20:57 | 32.83681 | -125.54151 | 36101 ft | 410 kts | 254° |
| 2026-05-04 20:58 | 32.82160 | -125.60684 | 36107 ft | 411 kts | 254° |
| 2026-05-04 20:58 | 32.80645 | -125.67201 | 36108 ft | 411 kts | 254° |
| 2026-05-04 20:59 | 32.79116 | -125.73744 | 36108 ft | 411 kts | 254° |
| 2026-05-04 20:59 | 32.77579 | -125.80291 | 36103 ft | 411 kts | 255° |
| 2026-05-04 21:00 | 32.76045 | -125.86806 | 36108 ft | 412 kts | 255° |
| 2026-05-04 21:00 | 32.74763 | -125.92253 | 36109 ft | 412 kts | 255° |
| 2026-05-04 21:01 | 32.73220 | -125.98807 | 36111 ft | 412 kts | 255° |
| 2026-05-04 21:01 | 32.71428 | -126.06399 | 36110 ft | 413 kts | 254° |
| 2026-05-04 21:02 | 32.70117 | -126.11890 | 36108 ft | 413 kts | 254° |
| 2026-05-04 21:02 | 32.68564 | -126.18409 | 36111 ft | 413 kts | 255° |
| 2026-05-04 21:03 | 32.67005 | -126.24968 | 36112 ft | 413 kts | 255° |
| 2026-05-04 21:03 | 32.65440 | -126.31498 | 36105 ft | 413 kts | 255° |
| 2026-05-04 21:04 | 32.63875 | -126.38033 | 36108 ft | 414 kts | 255° |
| 2026-05-04 21:04 | 32.62300 | -126.44604 | 36116 ft | 414 kts | 255° |
| 2026-05-04 21:05 | 32.60714 | -126.51170 | 36106 ft | 414 kts | 255° |
| 2026-05-04 21:05 | 32.59133 | -126.57714 | 36107 ft | 414 kts | 255° |
| 2026-05-04 21:06 | 32.57545 | -126.64270 | 36109 ft | 415 kts | 255° |
| 2026-05-04 21:06 | 32.55953 | -126.70841 | 36113 ft | 415 kts | 255° |
| 2026-05-04 21:07 | 32.54356 | -126.77408 | 36100 ft | 415 kts | 255° |
| 2026-05-04 21:07 | 32.52751 | -126.83994 | 36105 ft | 416 kts | 255° |
| 2026-05-04 21:08 | 32.51144 | -126.90578 | 36116 ft | 416 kts | 255° |
| 2026-05-04 21:08 | 32.49525 | -126.97157 | 36118 ft | 416 kts | 255° |
| 2026-05-04 21:09 | 32.47914 | -127.03701 | 36103 ft | 416 kts | 256° |
| 2026-05-04 21:09 | 32.46295 | -127.10283 | 36113 ft | 416 kts | 256° |
| 2026-05-04 21:10 | 32.44672 | -127.16863 | 36122 ft | 416 kts | 256° |
| 2026-05-04 21:10 | 32.43050 | -127.23445 | 36125 ft | 416 kts | 256° |
| 2026-05-04 21:11 | 32.41417 | -127.29999 | 36117 ft | 417 kts | 256° |
| 2026-05-04 21:11 | 32.39772 | -127.36578 | 36122 ft | 416 kts | 256° |
| 2026-05-04 21:12 | 32.38137 | -127.43147 | 36126 ft | 416 kts | 256° |
| 2026-05-04 21:12 | 32.36506 | -127.49711 | 36109 ft | 416 kts | 257° |
| 2026-05-04 21:13 | 32.34858 | -127.56265 | 36118 ft | 416 kts | 256° |
| 2026-05-04 21:13 | 32.33218 | -127.62795 | 36125 ft | 416 kts | 257° |
| 2026-05-04 21:14 | 32.31571 | -127.69351 | 36120 ft | 416 kts | 257° |
| 2026-05-04 21:14 | 32.29924 | -127.75909 | 36112 ft | 416 kts | 257° |
| 2026-05-04 21:15 | 32.28262 | -127.82457 | 36127 ft | 416 kts | 257° |
| 2026-05-04 21:15 | 32.26593 | -127.89008 | 36135 ft | 417 kts | 257° |
| 2026-05-04 21:16 | 32.24936 | -127.95542 | 36105 ft | 418 kts | 257° |
| 2026-05-04 21:16 | 32.23261 | -128.02119 | 36110 ft | 419 kts | 257° |
| 2026-05-04 21:17 | 32.21580 | -128.08707 | 36111 ft | 419 kts | 257° |
| 2026-05-04 21:17 | 32.19909 | -128.15233 | 36116 ft | 419 kts | 257° |
| 2026-05-04 21:18 | 32.18226 | -128.21792 | 36103 ft | 419 kts | 258° |
| 2026-05-04 21:18 | 32.16530 | -128.28378 | 36119 ft | 419 kts | 258° |
| 2026-05-04 21:19 | 32.14833 | -128.34951 | 36127 ft | 418 kts | 258° |
| 2026-05-04 21:19 | 32.13132 | -128.41513 | 36132 ft | 418 kts | 257° |
| 2026-05-04 21:20 | 32.11426 | -128.48077 | 36131 ft | 418 kts | 258° |
| 2026-05-04 21:20 | 32.09739 | -128.54606 | 36132 ft | 418 kts | 258° |
| 2026-05-04 21:21 | 32.08030 | -128.61153 | 36136 ft | 418 kts | 257° |
| 2026-05-04 21:21 | 32.06341 | -128.67633 | 36120 ft | 418 kts | 258° |
| 2026-05-04 21:22 | 32.04631 | -128.74173 | 36131 ft | 417 kts | 258° |
| 2026-05-04 21:22 | 32.02916 | -128.80699 | 36141 ft | 417 kts | 258° |
| 2026-05-04 21:23 | 32.01208 | -128.87224 | 36138 ft | 416 kts | 258° |
| 2026-05-04 21:23 | 31.99493 | -128.93745 | 36129 ft | 416 kts | 258° |
| 2026-05-04 21:24 | 31.97781 | -129.00241 | 36140 ft | 415 kts | 258° |
| 2026-05-04 21:24 | 31.96063 | -129.06723 | 36146 ft | 414 kts | 258° |
| 2026-05-04 21:25 | 31.94353 | -129.13155 | 36123 ft | 414 kts | 258° |
| 2026-05-04 21:25 | 31.92624 | -129.19651 | 36139 ft | 413 kts | 258° |
| 2026-05-04 21:26 | 31.90909 | -129.26099 | 36147 ft | 412 kts | 258° |
| 2026-05-04 21:26 | 31.89199 | -129.32488 | 36149 ft | 412 kts | 258° |
| 2026-05-04 21:27 | 31.87479 | -129.38915 | 36128 ft | 411 kts | 259° |
| 2026-05-04 21:27 | 31.85764 | -129.45329 | 36138 ft | 411 kts | 259° |
| 2026-05-04 21:28 | 31.84048 | -129.51736 | 36147 ft | 411 kts | 259° |
| 2026-05-04 21:28 | 31.82326 | -129.58133 | 36123 ft | 410 kts | 259° |
| 2026-05-04 21:29 | 31.80590 | -129.64525 | 36128 ft | 410 kts | 259° |
| 2026-05-04 21:29 | 31.78859 | -129.70904 | 36138 ft | 410 kts | 259° |
| 2026-05-04 21:30 | 31.77127 | -129.77275 | 36143 ft | 409 kts | 259° |
| 2026-05-04 21:30 | 31.75405 | -129.83650 | 36117 ft | 409 kts | 259° |
| 2026-05-04 21:31 | 31.72819 | -129.93154 | 36134 ft | 408 kts | 259° |
| 2026-05-04 21:32 | 31.71070 | -129.99506 | 36137 ft | 408 kts | 259° |
| 2026-05-04 21:32 | 31.69331 | -130.05851 | 36136 ft | 408 kts | 259° |
| 2026-05-04 21:33 | 31.67602 | -130.12180 | 36139 ft | 409 kts | 259° |
| 2026-05-04 21:33 | 31.65862 | -130.18500 | 36141 ft | 409 kts | 259° |
| 2026-05-04 21:34 | 31.64107 | -130.24854 | 36144 ft | 409 kts | 259° |
| 2026-05-04 21:34 | 31.62368 | -130.31143 | 36126 ft | 408 kts | 259° |
| 2026-05-04 21:35 | 31.60628 | -130.37435 | 36137 ft | 408 kts | 259° |
| 2026-05-04 21:35 | 31.58890 | -130.43702 | 36144 ft | 407 kts | 259° |
| 2026-05-04 21:36 | 31.57138 | -130.50015 | 36140 ft | 406 kts | 260° |
| 2026-05-04 21:36 | 31.55378 | -130.56311 | 36145 ft | 406 kts | 260° |
| 2026-05-04 21:37 | 31.53619 | -130.62600 | 36155 ft | 406 kts | 260° |
| 2026-05-04 21:37 | 31.51862 | -130.68877 | 36161 ft | 405 kts | 260° |
| 2026-05-04 21:38 | 31.50108 | -130.75155 | 36163 ft | 405 kts | 260° |
| 2026-05-04 21:38 | 31.48349 | -130.81423 | 36165 ft | 405 kts | 259° |
| 2026-05-04 21:39 | 31.46584 | -130.87691 | 36166 ft | 405 kts | 259° |
| 2026-05-04 21:39 | 31.44814 | -130.93951 | 36146 ft | 404 kts | 260° |
| 2026-05-04 21:40 | 31.43048 | -131.00194 | 36160 ft | 403 kts | 260° |
| 2026-05-04 21:40 | 31.41297 | -131.06378 | 36169 ft | 403 kts | 260° |
| 2026-05-04 21:41 | 31.39527 | -131.12596 | 36178 ft | 402 kts | 260° |
| 2026-05-04 21:41 | 31.37760 | -131.18797 | 36160 ft | 401 kts | 260° |
| 2026-05-04 21:42 | 31.35997 | -131.24993 | 36166 ft | 401 kts | 261° |
| 2026-05-04 21:42 | 31.34235 | -131.31179 | 36176 ft | 401 kts | 260° |
| 2026-05-04 21:43 | 31.32461 | -131.37356 | 36144 ft | 400 kts | 260° |
| 2026-05-04 21:43 | 31.30688 | -131.43523 | 36162 ft | 400 kts | 261° |
| 2026-05-04 21:44 | 31.28921 | -131.49680 | 36169 ft | 399 kts | 260° |
| 2026-05-04 21:44 | 31.27147 | -131.55831 | 36172 ft | 399 kts | 260° |
| 2026-05-04 21:45 | 31.25369 | -131.61971 | 36161 ft | 398 kts | 260° |
| 2026-05-04 21:45 | 31.23595 | -131.68098 | 36168 ft | 398 kts | 260° |
| 2026-05-04 21:46 | 31.21823 | -131.74227 | 36173 ft | 398 kts | 260° |
| 2026-05-04 21:46 | 31.20043 | -131.80351 | 36162 ft | 398 kts | 260° |
| 2026-05-04 21:47 | 31.18254 | -131.86476 | 36175 ft | 398 kts | 260° |
| 2026-05-04 21:47 | 31.16465 | -131.92600 | 36182 ft | 398 kts | 260° |
| 2026-05-04 21:48 | 31.14686 | -131.98712 | 36175 ft | 398 kts | 260° |
| 2026-05-04 21:48 | 31.12901 | -132.04828 | 36167 ft | 398 kts | 259° |
| 2026-05-04 21:49 | 31.11117 | -132.10899 | 36187 ft | 398 kts | 259° |
| 2026-05-04 21:49 | 31.09319 | -132.16995 | 36185 ft | 398 kts | 259° |
| 2026-05-04 21:50 | 31.07516 | -132.23106 | 36162 ft | 398 kts | 259° |
| 2026-05-04 21:50 | 31.05721 | -132.29202 | 36174 ft | 398 kts | 259° |
| 2026-05-04 21:51 | 31.03917 | -132.35307 | 36180 ft | 398 kts | 259° |
| 2026-05-04 21:51 | 31.02105 | -132.41411 | 36153 ft | 398 kts | 259° |
| 2026-05-04 21:52 | 31.00290 | -132.47526 | 36183 ft | 400 kts | 259° |
| 2026-05-04 21:52 | 30.98467 | -132.53642 | 36188 ft | 400 kts | 259° |
| 2026-05-04 21:53 | 30.96653 | -132.59718 | 36201 ft | 399 kts | 259° |
| 2026-05-04 21:53 | 30.94833 | -132.65834 | 36171 ft | 400 kts | 259° |
| 2026-05-04 21:54 | 30.93009 | -132.71950 | 36180 ft | 400 kts | 258° |
| 2026-05-04 21:54 | 30.91466 | -132.77079 | 36186 ft | 400 kts | 258° |
| 2026-05-04 21:55 | 30.89633 | -132.83155 | 36194 ft | 400 kts | 258° |
| 2026-05-04 21:55 | 30.87791 | -132.89274 | 36201 ft | 400 kts | 258° |
| 2026-05-04 21:56 | 30.85943 | -132.95392 | 36203 ft | 401 kts | 258° |
| 2026-05-04 21:56 | 30.84092 | -133.01509 | 36203 ft | 401 kts | 258° |
| 2026-05-04 21:57 | 30.82243 | -133.07622 | 36184 ft | 401 kts | 258° |
| 2026-05-04 21:57 | 30.80391 | -133.13733 | 36189 ft | 401 kts | 258° |
| 2026-05-04 21:58 | 30.78537 | -133.19852 | 36201 ft | 401 kts | 258° |
| 2026-05-04 21:58 | 30.76678 | -133.25966 | 36187 ft | 401 kts | 258° |
| 2026-05-04 21:59 | 30.74802 | -133.32070 | 36197 ft | 401 kts | 258° |
| 2026-05-04 21:59 | 30.72929 | -133.38169 | 36202 ft | 401 kts | 258° |
| 2026-05-04 22:00 | 30.71066 | -133.44286 | 36188 ft | 401 kts | 257° |
| 2026-05-04 22:00 | 30.69198 | -133.50391 | 36204 ft | 401 kts | 257° |
| 2026-05-04 22:01 | 30.67315 | -133.56491 | 36215 ft | 401 kts | 257° |
| 2026-05-04 22:01 | 30.65439 | -133.62591 | 36220 ft | 401 kts | 257° |
| 2026-05-04 22:02 | 30.63566 | -133.68651 | 36210 ft | 401 kts | 257° |
| 2026-05-04 22:02 | 30.61684 | -133.74739 | 36214 ft | 401 kts | 257° |
| 2026-05-04 22:03 | 30.59798 | -133.80825 | 36219 ft | 401 kts | 257° |
| 2026-05-04 22:03 | 30.57905 | -133.86911 | 36202 ft | 401 kts | 257° |
| 2026-05-04 22:04 | 30.56010 | -133.93002 | 36210 ft | 401 kts | 257° |
| 2026-05-04 22:04 | 30.54112 | -133.99084 | 36230 ft | 401 kts | 257° |
| 2026-05-04 22:05 | 30.52219 | -134.05167 | 36213 ft | 401 kts | 257° |
| 2026-05-04 22:05 | 30.50318 | -134.11257 | 36219 ft | 401 kts | 257° |
| 2026-05-04 22:06 | 30.48416 | -134.17336 | 36223 ft | 401 kts | 257° |
| 2026-05-04 22:06 | 30.46503 | -134.23414 | 36202 ft | 402 kts | 256° |
| 2026-05-04 22:07 | 30.44585 | -134.29494 | 36213 ft | 402 kts | 256° |
| 2026-05-04 22:07 | 30.42663 | -134.35587 | 36220 ft | 402 kts | 256° |
| 2026-05-04 22:08 | 30.40744 | -134.41673 | 36227 ft | 403 kts | 256° |
| 2026-05-04 22:08 | 30.38823 | -134.47769 | 36219 ft | 403 kts | 256° |
| 2026-05-04 22:09 | 30.36888 | -134.53866 | 36227 ft | 403 kts | 256° |
| 2026-05-04 22:09 | 30.34943 | -134.59950 | 36230 ft | 403 kts | 256° |
| 2026-05-04 22:10 | 30.33008 | -134.66035 | 36216 ft | 403 kts | 256° |
| 2026-05-04 22:10 | 30.31070 | -134.72131 | 36225 ft | 403 kts | 256° |
| 2026-05-04 22:11 | 30.29125 | -134.78227 | 36229 ft | 404 kts | 256° |
| 2026-05-04 22:11 | 30.27178 | -134.84314 | 36233 ft | 404 kts | 256° |
| 2026-05-04 22:12 | 30.25224 | -134.90406 | 36240 ft | 404 kts | 256° |
| 2026-05-04 22:12 | 30.23267 | -134.96494 | 36242 ft | 404 kts | 256° |
| 2026-05-04 22:13 | 30.21320 | -135.02548 | 36222 ft | 404 kts | 255° |
| 2026-05-04 22:13 | 30.19362 | -135.08636 | 36231 ft | 404 kts | 255° |
| 2026-05-04 22:14 | 30.17397 | -135.14733 | 36230 ft | 405 kts | 255° |
| 2026-05-04 22:14 | 30.15419 | -135.20821 | 36221 ft | 405 kts | 255° |
| 2026-05-04 22:15 | 30.13446 | -135.26918 | 36231 ft | 405 kts | 255° |
| 2026-05-04 22:15 | 30.11468 | -135.33011 | 36235 ft | 405 kts | 255° |
| 2026-05-04 22:16 | 30.09485 | -135.39104 | 36237 ft | 405 kts | 255° |
| 2026-05-04 22:16 | 30.07504 | -135.45195 | 36224 ft | 406 kts | 255° |
| 2026-05-04 22:17 | 30.05512 | -135.51298 | 36230 ft | 406 kts | 255° |
| 2026-05-04 22:17 | 30.03518 | -135.57396 | 36236 ft | 406 kts | 255° |
| 2026-05-04 22:18 | 30.01522 | -135.63504 | 36241 ft | 407 kts | 255° |
| 2026-05-04 22:18 | 29.99521 | -135.69612 | 36245 ft | 407 kts | 254° |
| 2026-05-04 22:19 | 29.97513 | -135.75711 | 36249 ft | 407 kts | 254° |
| 2026-05-04 22:19 | 29.95498 | -135.81823 | 36256 ft | 407 kts | 254° |
| 2026-05-04 22:20 | 29.93481 | -135.87919 | 36256 ft | 407 kts | 254° |
| 2026-05-04 22:20 | 29.91467 | -135.94017 | 36256 ft | 407 kts | 254° |
| 2026-05-04 22:21 | 29.89453 | -136.00118 | 36245 ft | 407 kts | 254° |
| 2026-05-04 22:21 | 29.87434 | -136.06209 | 36255 ft | 407 kts | 254° |
| 2026-05-04 22:22 | 29.85400 | -136.12295 | 36255 ft | 407 kts | 254° |
| 2026-05-04 22:22 | 29.83374 | -136.18375 | 36251 ft | 407 kts | 254° |
| 2026-05-04 22:23 | 29.81350 | -136.24467 | 36241 ft | 407 kts | 254° |
| 2026-05-04 22:23 | 29.79320 | -136.30545 | 36246 ft | 407 kts | 253° |
| 2026-05-04 22:24 | 29.77292 | -136.36603 | 36256 ft | 407 kts | 253° |
| 2026-05-04 22:24 | 29.75270 | -136.42635 | 36255 ft | 407 kts | 253° |
| 2026-05-04 22:25 | 29.73225 | -136.48708 | 36256 ft | 407 kts | 253° |
| 2026-05-04 22:25 | 29.71182 | -136.54778 | 36246 ft | 407 kts | 253° |
| 2026-05-04 22:26 | 29.69139 | -136.60851 | 36256 ft | 407 kts | 253° |
| 2026-05-04 22:26 | 29.67092 | -136.66924 | 36258 ft | 407 kts | 253° |
| 2026-05-04 22:27 | 29.65038 | -136.72989 | 36261 ft | 407 kts | 253° |
| 2026-05-04 22:27 | 29.62982 | -136.79054 | 36267 ft | 407 kts | 253° |
| 2026-05-04 22:28 | 29.60924 | -136.85114 | 36250 ft | 407 kts | 253° |
| 2026-05-04 22:28 | 29.58856 | -136.91178 | 36265 ft | 407 kts | 253° |
| 2026-05-04 22:29 | 29.56792 | -136.97240 | 36263 ft | 408 kts | 253° |
| 2026-05-04 22:29 | 29.54726 | -137.03298 | 36272 ft | 407 kts | 252° |
| 2026-05-04 22:30 | 29.52654 | -137.09359 | 36272 ft | 407 kts | 252° |
| 2026-05-04 22:30 | 29.50596 | -137.15366 | 36270 ft | 407 kts | 252° |
| 2026-05-04 22:31 | 29.48524 | -137.21415 | 36256 ft | 407 kts | 252° |
| 2026-05-04 22:31 | 29.46447 | -137.27470 | 36265 ft | 407 kts | 252° |
| 2026-05-04 22:32 | 29.44364 | -137.33516 | 36272 ft | 407 kts | 252° |
| 2026-05-04 22:32 | 29.42287 | -137.39546 | 36263 ft | 407 kts | 252° |
| 2026-05-04 22:33 | 29.40199 | -137.45588 | 36262 ft | 408 kts | 252° |
| 2026-05-04 22:33 | 29.38109 | -137.51629 | 36265 ft | 408 kts | 252° |
| 2026-05-04 22:34 | 29.36027 | -137.57647 | 36266 ft | 408 kts | 252° |
| 2026-05-04 22:34 | 29.33931 | -137.63684 | 36264 ft | 408 kts | 252° |
| 2026-05-04 22:35 | 29.31823 | -137.69721 | 36266 ft | 408 kts | 252° |
| 2026-05-04 22:35 | 29.29724 | -137.75759 | 36265 ft | 408 kts | 252° |
| 2026-05-04 22:36 | 29.27625 | -137.81796 | 36261 ft | 408 kts | 252° |
| 2026-05-04 22:36 | 29.25532 | -137.87787 | 36264 ft | 408 kts | 251° |
| 2026-05-04 22:37 | 29.23408 | -137.93817 | 36269 ft | 408 kts | 251° |
| 2026-05-04 22:37 | 29.21290 | -137.99845 | 36260 ft | 408 kts | 251° |
| 2026-05-04 22:38 | 29.19177 | -138.05881 | 36266 ft | 408 kts | 251° |
| 2026-05-04 22:38 | 29.17062 | -138.11914 | 36266 ft | 408 kts | 251° |
| 2026-05-04 22:39 | 29.14940 | -138.17942 | 36268 ft | 408 kts | 251° |
| 2026-05-04 22:39 | 29.12808 | -138.23969 | 36266 ft | 408 kts | 251° |
| 2026-05-04 22:40 | 29.10676 | -138.29989 | 36259 ft | 408 kts | 251° |
| 2026-05-04 22:40 | 29.08541 | -138.36008 | 36266 ft | 408 kts | 251° |
| 2026-05-04 22:41 | 29.06767 | -138.41005 | 36269 ft | 408 kts | 251° |
| 2026-05-04 22:41 | 29.04283 | -138.47997 | 36272 ft | 408 kts | 251° |
| 2026-05-04 22:42 | 29.02146 | -138.54008 | 36270 ft | 408 kts | 251° |
| 2026-05-04 22:42 | 29.00004 | -138.60018 | 36273 ft | 408 kts | 251° |
| 2026-05-04 22:43 | 28.98207 | -138.65057 | 36276 ft | 408 kts | 251° |
| 2026-05-04 22:43 | 28.96061 | -138.71065 | 36270 ft | 408 kts | 251° |
| 2026-05-04 22:44 | 28.93910 | -138.77062 | 36272 ft | 408 kts | 251° |
| 2026-05-04 22:44 | 28.91750 | -138.83063 | 36278 ft | 408 kts | 251° |
| 2026-05-04 22:45 | 28.89590 | -138.89054 | 36267 ft | 408 kts | 251° |
| 2026-05-04 22:45 | 28.86378 | -138.98011 | 36271 ft | 408 kts | 251° |
| 2026-05-04 22:46 | 28.84215 | -139.03995 | 36272 ft | 408 kts | 250° |
| 2026-05-04 22:46 | 28.82039 | -139.09979 | 36276 ft | 408 kts | 250° |
| 2026-05-04 22:47 | 28.79872 | -139.15960 | 36261 ft | 408 kts | 250° |
| 2026-05-04 22:47 | 28.77704 | -139.21940 | 36265 ft | 408 kts | 250° |
| 2026-05-04 22:48 | 28.75538 | -139.27912 | 36267 ft | 408 kts | 250° |
| 2026-05-04 22:48 | 28.73369 | -139.33887 | 36272 ft | 408 kts | 250° |
| 2026-05-04 22:49 | 28.71190 | -139.39854 | 36277 ft | 408 kts | 250° |
| 2026-05-04 22:49 | 28.69010 | -139.45820 | 36278 ft | 408 kts | 250° |
| 2026-05-04 22:50 | 28.66821 | -139.51781 | 36268 ft | 408 kts | 250° |
| 2026-05-04 22:50 | 28.64637 | -139.57729 | 36276 ft | 408 kts | 250° |
| 2026-05-04 22:51 | 28.62444 | -139.63684 | 36280 ft | 408 kts | 250° |
| 2026-05-04 22:51 | 28.60251 | -139.69631 | 36282 ft | 408 kts | 250° |
| 2026-05-04 22:52 | 28.58064 | -139.75537 | 36279 ft | 407 kts | 250° |
| 2026-05-04 22:52 | 28.55870 | -139.81476 | 36269 ft | 407 kts | 250° |
| 2026-05-04 22:53 | 28.53678 | -139.87414 | 36270 ft | 407 kts | 250° |
| 2026-05-04 22:53 | 28.51480 | -139.93346 | 36276 ft | 407 kts | 250° |
| 2026-05-04 22:54 | 28.49271 | -139.99272 | 36279 ft | 407 kts | 250° |
| 2026-05-04 22:54 | 28.47063 | -140.05191 | 36279 ft | 407 kts | 250° |
| 2026-05-04 22:55 | 28.44862 | -140.11110 | 36271 ft | 406 kts | 250° |
| 2026-05-04 22:55 | 28.42660 | -140.17028 | 36275 ft | 406 kts | 250° |
| 2026-05-04 22:56 | 28.40451 | -140.22934 | 36273 ft | 406 kts | 250° |
| 2026-05-04 22:56 | 28.38244 | -140.28838 | 36276 ft | 406 kts | 250° |
| 2026-05-04 22:57 | 28.36031 | -140.34736 | 36274 ft | 406 kts | 250° |
| 2026-05-04 22:57 | 28.33800 | -140.40638 | 36266 ft | 406 kts | 249° |
| 2026-05-04 22:58 | 28.31582 | -140.46530 | 36273 ft | 406 kts | 249° |
| 2026-05-04 22:58 | 28.29380 | -140.52382 | 36275 ft | 406 kts | 249° |
| 2026-05-04 22:59 | 28.27161 | -140.58263 | 36276 ft | 406 kts | 249° |
| 2026-05-04 22:59 | 28.24943 | -140.64154 | 36273 ft | 406 kts | 249° |
| 2026-05-04 23:00 | 28.22717 | -140.70035 | 36279 ft | 405 kts | 249° |
| 2026-05-04 23:00 | 28.20494 | -140.75902 | 36268 ft | 405 kts | 249° |
| 2026-05-04 23:01 | 28.18262 | -140.81771 | 36269 ft | 405 kts | 249° |
| 2026-05-04 23:01 | 28.16024 | -140.87638 | 36274 ft | 405 kts | 249° |
| 2026-05-04 23:02 | 28.13791 | -140.93508 | 36275 ft | 405 kts | 249° |
| 2026-05-04 23:02 | 28.11561 | -140.99366 | 36279 ft | 405 kts | 249° |
| 2026-05-04 23:03 | 28.09321 | -141.05213 | 36268 ft | 405 kts | 249° |
| 2026-05-04 23:03 | 28.07102 | -141.11029 | 36267 ft | 405 kts | 249° |
| 2026-05-04 23:04 | 28.04864 | -141.16881 | 36265 ft | 405 kts | 249° |
| 2026-05-04 23:04 | 28.02620 | -141.22729 | 36271 ft | 405 kts | 249° |
| 2026-05-04 23:05 | 28.00365 | -141.28570 | 36270 ft | 405 kts | 249° |
| 2026-05-04 23:05 | 27.98112 | -141.34409 | 36274 ft | 405 kts | 249° |
| 2026-05-04 23:06 | 27.95856 | -141.40250 | 36264 ft | 405 kts | 249° |
| 2026-05-04 23:06 | 27.93605 | -141.46083 | 36271 ft | 405 kts | 249° |
| 2026-05-04 23:07 | 27.91354 | -141.51919 | 36268 ft | 405 kts | 249° |
| 2026-05-04 23:07 | 27.89101 | -141.57752 | 36265 ft | 405 kts | 249° |
| 2026-05-04 23:08 | 27.86837 | -141.63578 | 36278 ft | 405 kts | 249° |
| 2026-05-04 23:08 | 27.84578 | -141.69402 | 36280 ft | 404 kts | 249° |
| 2026-05-04 23:09 | 27.82318 | -141.75213 | 36274 ft | 404 kts | 249° |
| 2026-05-04 23:09 | 27.80059 | -141.80987 | 36273 ft | 404 kts | 249° |
| 2026-05-04 23:10 | 27.77787 | -141.86794 | 36277 ft | 404 kts | 249° |
| 2026-05-04 23:10 | 27.75525 | -141.92592 | 36273 ft | 404 kts | 249° |
| 2026-05-04 23:11 | 27.73261 | -141.98396 | 36278 ft | 403 kts | 249° |
| 2026-05-04 23:11 | 27.70989 | -142.04183 | 36263 ft | 403 kts | 249° |
| 2026-05-04 23:12 | 27.68716 | -142.09969 | 36269 ft | 403 kts | 249° |
| 2026-05-04 23:12 | 27.66442 | -142.15759 | 36269 ft | 403 kts | 248° |
| 2026-05-04 23:13 | 27.64174 | -142.21532 | 36268 ft | 403 kts | 248° |
| 2026-05-04 23:13 | 27.61897 | -142.27305 | 36267 ft | 403 kts | 248° |
| 2026-05-04 23:14 | 27.59613 | -142.33074 | 36271 ft | 403 kts | 248° |
| 2026-05-04 23:14 | 27.57330 | -142.38839 | 36259 ft | 403 kts | 248° |
| 2026-05-04 23:15 | 27.55043 | -142.44599 | 36258 ft | 403 kts | 248° |
| 2026-05-04 23:15 | 27.52755 | -142.50357 | 36260 ft | 403 kts | 248° |
| 2026-05-04 23:16 | 27.50473 | -142.56120 | 36267 ft | 403 kts | 248° |
| 2026-05-04 23:16 | 27.48209 | -142.61847 | 36268 ft | 402 kts | 248° |
| 2026-05-04 23:17 | 27.45920 | -142.67594 | 36267 ft | 402 kts | 248° |
| 2026-05-04 23:17 | 27.43619 | -142.73348 | 36254 ft | 403 kts | 248° |
| 2026-05-04 23:18 | 27.41326 | -142.79091 | 36261 ft | 403 kts | 248° |
| 2026-05-04 23:18 | 27.39025 | -142.84839 | 36264 ft | 403 kts | 248° |
| 2026-05-04 23:19 | 27.36724 | -142.90586 | 36264 ft | 403 kts | 248° |
| 2026-05-04 23:19 | 27.34420 | -142.96329 | 36264 ft | 403 kts | 248° |
| 2026-05-04 23:20 | 27.32110 | -143.02073 | 36262 ft | 403 kts | 248° |
| 2026-05-04 23:20 | 27.29803 | -143.07805 | 36254 ft | 403 kts | 248° |
| 2026-05-04 23:21 | 27.27494 | -143.13537 | 36261 ft | 403 kts | 248° |
| 2026-05-04 23:21 | 27.25203 | -143.19238 | 36262 ft | 403 kts | 248° |
| 2026-05-04 23:22 | 27.22889 | -143.24967 | 36256 ft | 403 kts | 248° |
| 2026-05-04 23:22 | 27.20566 | -143.30692 | 36256 ft | 403 kts | 248° |
| 2026-05-04 23:23 | 27.18239 | -143.36413 | 36248 ft | 403 kts | 248° |
| 2026-05-04 23:23 | 27.15920 | -143.42135 | 36252 ft | 403 kts | 248° |
| 2026-05-04 23:24 | 27.13596 | -143.47853 | 36254 ft | 403 kts | 248° |
| 2026-05-04 23:24 | 27.11265 | -143.53568 | 36253 ft | 403 kts | 248° |
| 2026-05-04 23:25 | 27.08933 | -143.59286 | 36253 ft | 403 kts | 248° |
| 2026-05-04 23:25 | 27.06604 | -143.65000 | 36252 ft | 403 kts | 248° |
| 2026-05-04 23:26 | 27.04271 | -143.70707 | 36245 ft | 403 kts | 247° |
| 2026-05-04 23:26 | 27.01935 | -143.76414 | 36246 ft | 403 kts | 247° |
| 2026-05-04 23:27 | 26.99611 | -143.82087 | 36247 ft | 403 kts | 247° |
| 2026-05-04 23:27 | 26.97275 | -143.87793 | 36249 ft | 403 kts | 247° |
| 2026-05-04 23:28 | 26.94942 | -143.93465 | 36251 ft | 403 kts | 247° |
| 2026-05-04 23:28 | 26.92611 | -143.99117 | 36252 ft | 403 kts | 247° |
| 2026-05-04 23:29 | 26.90267 | -144.04819 | 36252 ft | 403 kts | 247° |
| 2026-05-04 23:29 | 26.87939 | -144.10474 | 36244 ft | 403 kts | 247° |
| 2026-05-04 23:30 | 26.85585 | -144.16164 | 36247 ft | 403 kts | 247° |
| 2026-05-04 23:30 | 26.83625 | -144.20894 | 36246 ft | 403 kts | 247° |
| 2026-05-04 23:31 | 26.81270 | -144.26583 | 36249 ft | 403 kts | 247° |
| 2026-05-04 23:31 | 26.78917 | -144.32265 | 36249 ft | 403 kts | 247° |
| 2026-05-04 23:32 | 26.76554 | -144.37945 | 36247 ft | 403 kts | 247° |
| 2026-05-04 23:32 | 26.74188 | -144.43630 | 36238 ft | 403 kts | 247° |
| 2026-05-04 23:33 | 26.71836 | -144.49275 | 36239 ft | 402 kts | 247° |
| 2026-05-04 23:33 | 26.69484 | -144.54918 | 36236 ft | 402 kts | 247° |
| 2026-05-04 23:34 | 26.67100 | -144.60625 | 36239 ft | 402 kts | 247° |
| 2026-05-04 23:34 | 26.64757 | -144.66231 | 36243 ft | 402 kts | 247° |
| 2026-05-04 23:35 | 26.62382 | -144.71897 | 36240 ft | 402 kts | 247° |
| 2026-05-04 23:35 | 26.60001 | -144.77553 | 36233 ft | 402 kts | 247° |
| 2026-05-04 23:36 | 26.57625 | -144.83211 | 36242 ft | 402 kts | 247° |
| 2026-05-04 23:36 | 26.55259 | -144.88860 | 36244 ft | 402 kts | 247° |
| 2026-05-04 23:37 | 26.52880 | -144.94516 | 36236 ft | 402 kts | 247° |
| 2026-05-04 23:37 | 26.50495 | -145.00156 | 36224 ft | 402 kts | 247° |
| 2026-05-04 23:38 | 26.48109 | -145.05797 | 36242 ft | 402 kts | 247° |
| 2026-05-04 23:38 | 26.45724 | -145.11433 | 36235 ft | 402 kts | 247° |
| 2026-05-04 23:39 | 26.43342 | -145.17073 | 36238 ft | 402 kts | 247° |
| 2026-05-04 23:39 | 26.40952 | -145.22715 | 36232 ft | 402 kts | 247° |
| 2026-05-04 23:40 | 26.38568 | -145.28323 | 36234 ft | 402 kts | 247° |
| 2026-05-04 23:40 | 26.36172 | -145.33960 | 36235 ft | 402 kts | 247° |
| 2026-05-04 23:41 | 26.33776 | -145.39596 | 36227 ft | 403 kts | 247° |
| 2026-05-04 23:41 | 26.31388 | -145.45199 | 36229 ft | 403 kts | 247° |
| 2026-05-04 23:42 | 26.28965 | -145.50872 | 36225 ft | 402 kts | 247° |
| 2026-05-04 23:42 | 26.26585 | -145.56441 | 36233 ft | 402 kts | 247° |
| 2026-05-04 23:43 | 26.24180 | -145.62065 | 36227 ft | 402 kts | 247° |
| 2026-05-04 23:43 | 26.21766 | -145.67683 | 36234 ft | 402 kts | 246° |
| 2026-05-04 23:44 | 26.19350 | -145.73293 | 36232 ft | 402 kts | 246° |
| 2026-05-04 23:44 | 26.16940 | -145.78905 | 36231 ft | 402 kts | 247° |
| 2026-05-04 23:45 | 26.14534 | -145.84527 | 36221 ft | 402 kts | 247° |
| 2026-05-04 23:45 | 26.12141 | -145.90097 | 36219 ft | 402 kts | 247° |
| 2026-05-04 23:46 | 26.09716 | -145.95701 | 36217 ft | 402 kts | 246° |
| 2026-05-04 23:46 | 26.07301 | -146.01286 | 36219 ft | 402 kts | 246° |
| 2026-05-04 23:47 | 26.04875 | -146.06882 | 36231 ft | 402 kts | 246° |
| 2026-05-04 23:47 | 26.02446 | -146.12480 | 36216 ft | 402 kts | 246° |
| 2026-05-04 23:48 | 26.00023 | -146.18074 | 36230 ft | 401 kts | 246° |
| 2026-05-04 23:48 | 25.97606 | -146.23658 | 36217 ft | 401 kts | 247° |
| 2026-05-04 23:49 | 25.95187 | -146.29244 | 36224 ft | 400 kts | 247° |
| 2026-05-04 23:49 | 25.92772 | -146.34811 | 36223 ft | 400 kts | 246° |
| 2026-05-04 23:50 | 25.90383 | -146.40313 | 36223 ft | 400 kts | 246° |
| 2026-05-04 23:50 | 25.87961 | -146.45878 | 36222 ft | 400 kts | 246° |
| 2026-05-04 23:51 | 25.85535 | -146.51436 | 36218 ft | 400 kts | 246° |
| 2026-05-04 23:51 | 25.83102 | -146.56991 | 36216 ft | 400 kts | 246° |
| 2026-05-04 23:52 | 25.80673 | -146.62545 | 36213 ft | 400 kts | 246° |
| 2026-05-04 23:52 | 25.78247 | -146.68091 | 36215 ft | 399 kts | 246° |
| 2026-05-04 23:53 | 25.75823 | -146.73636 | 36214 ft | 399 kts | 246° |
| 2026-05-04 23:53 | 25.73399 | -146.79173 | 36215 ft | 399 kts | 246° |
| 2026-05-04 23:54 | 25.70959 | -146.84706 | 36208 ft | 399 kts | 246° |
| 2026-05-04 23:54 | 25.68528 | -146.90213 | 36209 ft | 399 kts | 246° |
| 2026-05-04 23:55 | 25.66090 | -146.95740 | 36197 ft | 399 kts | 246° |
| 2026-05-04 23:56 | 25.62466 | -147.03969 | 36206 ft | 398 kts | 246° |
| 2026-05-04 23:56 | 25.60033 | -147.09476 | 36209 ft | 398 kts | 246° |
| 2026-05-04 23:57 | 25.57604 | -147.14940 | 36206 ft | 398 kts | 246° |
| 2026-05-04 23:57 | 25.55165 | -147.20440 | 36205 ft | 398 kts | 246° |
| 2026-05-04 23:58 | 25.52730 | -147.25945 | 36200 ft | 398 kts | 246° |
| 2026-05-04 23:58 | 25.50291 | -147.31441 | 36200 ft | 398 kts | 246° |
| 2026-05-04 23:59 | 25.47857 | -147.36896 | 36199 ft | 398 kts | 246° |
| 2026-05-04 23:59 | 25.45415 | -147.42382 | 36202 ft | 397 kts | 246° |
| 2026-05-05 00:00 | 25.42988 | -147.47824 | 36203 ft | 397 kts | 246° |
| 2026-05-05 00:00 | 25.40546 | -147.53305 | 36203 ft | 397 kts | 246° |
| 2026-05-05 00:01 | 25.38101 | -147.58780 | 36199 ft | 397 kts | 246° |
| 2026-05-05 00:01 | 25.35651 | -147.64254 | 36198 ft | 397 kts | 246° |
| 2026-05-05 00:02 | 25.33197 | -147.69720 | 36199 ft | 397 kts | 246° |
| 2026-05-05 00:02 | 25.30744 | -147.75183 | 36193 ft | 397 kts | 246° |
| 2026-05-05 00:03 | 25.28295 | -147.80637 | 36195 ft | 396 kts | 246° |
| 2026-05-05 00:03 | 25.25846 | -147.86088 | 36197 ft | 396 kts | 246° |
| 2026-05-05 00:04 | 25.23398 | -147.91533 | 36197 ft | 396 kts | 246° |
| 2026-05-05 00:04 | 25.20939 | -147.96976 | 36201 ft | 396 kts | 246° |
| 2026-05-05 00:05 | 25.18501 | -148.02374 | 36201 ft | 396 kts | 246° |
| 2026-05-05 00:05 | 25.16048 | -148.07804 | 36201 ft | 395 kts | 246° |
| 2026-05-05 00:06 | 25.13596 | -148.13238 | 36185 ft | 395 kts | 246° |
| 2026-05-05 00:06 | 25.11138 | -148.18663 | 36191 ft | 395 kts | 246° |
| 2026-05-05 00:07 | 25.08680 | -148.24080 | 36200 ft | 395 kts | 246° |
| 2026-05-05 00:07 | 25.06248 | -148.29440 | 36200 ft | 394 kts | 246° |
| 2026-05-05 00:08 | 25.03788 | -148.34850 | 36197 ft | 394 kts | 246° |
| 2026-05-05 00:08 | 25.01325 | -148.40245 | 36197 ft | 394 kts | 246° |
| 2026-05-05 00:09 | 24.98864 | -148.45651 | 36197 ft | 394 kts | 246° |
| 2026-05-05 00:09 | 24.96404 | -148.51047 | 36190 ft | 394 kts | 246° |
| 2026-05-05 00:10 | 24.93939 | -148.56434 | 36191 ft | 394 kts | 246° |
| 2026-05-05 00:10 | 24.91493 | -148.61792 | 36193 ft | 394 kts | 246° |
| 2026-05-05 00:11 | 24.89027 | -148.67170 | 36196 ft | 394 kts | 246° |
| 2026-05-05 00:11 | 24.86559 | -148.72547 | 36196 ft | 393 kts | 246° |
| 2026-05-05 00:12 | 24.84095 | -148.77934 | 36195 ft | 393 kts | 246° |
| 2026-05-05 00:12 | 24.81634 | -148.83288 | 36194 ft | 393 kts | 246° |
| 2026-05-05 00:13 | 24.79160 | -148.88663 | 36193 ft | 393 kts | 246° |
| 2026-05-05 00:13 | 24.76694 | -148.94024 | 36193 ft | 393 kts | 246° |
| 2026-05-05 00:14 | 24.74218 | -148.99398 | 36189 ft | 393 kts | 246° |
| 2026-05-05 00:14 | 24.71735 | -149.04756 | 36191 ft | 393 kts | 246° |
| 2026-05-05 00:15 | 24.69256 | -149.10115 | 36190 ft | 393 kts | 246° |
| 2026-05-05 00:15 | 24.66776 | -149.15476 | 36193 ft | 393 kts | 246° |
| 2026-05-05 00:16 | 24.64317 | -149.20799 | 36192 ft | 393 kts | 246° |
| 2026-05-05 00:16 | 24.61819 | -149.26191 | 36178 ft | 393 kts | 246° |
| 2026-05-05 00:17 | 24.59327 | -149.31534 | 36183 ft | 393 kts | 246° |
| 2026-05-05 00:17 | 24.56865 | -149.36839 | 36186 ft | 393 kts | 246° |
| 2026-05-05 00:18 | 24.54378 | -149.42179 | 36186 ft | 393 kts | 246° |
| 2026-05-05 00:18 | 24.51890 | -149.47519 | 36187 ft | 392 kts | 246° |
| 2026-05-05 00:19 | 24.49406 | -149.52847 | 36189 ft | 392 kts | 246° |
| 2026-05-05 00:19 | 24.46913 | -149.58181 | 36186 ft | 392 kts | 246° |
| 2026-05-05 00:20 | 24.44415 | -149.63508 | 36182 ft | 392 kts | 246° |
| 2026-05-05 00:20 | 24.41924 | -149.68833 | 36177 ft | 392 kts | 246° |
| 2026-05-05 00:21 | 24.39435 | -149.74155 | 36183 ft | 392 kts | 246° |
| 2026-05-05 00:21 | 24.36947 | -149.79476 | 36187 ft | 392 kts | 246° |
| 2026-05-05 00:22 | 24.34882 | -149.83886 | 36185 ft | 392 kts | 246° |
| 2026-05-05 00:22 | 24.31987 | -149.90020 | 36186 ft | 392 kts | 246° |
| 2026-05-05 00:23 | 24.29506 | -149.95273 | 36186 ft | 392 kts | 246° |
| 2026-05-05 00:23 | 24.27408 | -149.99713 | 36185 ft | 392 kts | 246° |
| 2026-05-05 00:24 | 24.24913 | -150.05019 | 36162 ft | 391 kts | 246° |
| 2026-05-05 00:24 | 24.22411 | -150.10318 | 36179 ft | 391 kts | 246° |
| 2026-05-05 00:25 | 24.19916 | -150.15606 | 36185 ft | 391 kts | 246° |
| 2026-05-05 00:25 | 24.17431 | -150.20854 | 36176 ft | 391 kts | 246° |
| 2026-05-05 00:26 | 24.14929 | -150.26134 | 36176 ft | 391 kts | 246° |
| 2026-05-05 00:26 | 24.12424 | -150.31408 | 36174 ft | 390 kts | 246° |
| 2026-05-05 00:27 | 24.09924 | -150.36682 | 36173 ft | 390 kts | 246° |
| 2026-05-05 00:27 | 24.07421 | -150.41956 | 36179 ft | 390 kts | 246° |
| 2026-05-05 00:28 | 24.04915 | -150.47220 | 36169 ft | 390 kts | 246° |
| 2026-05-05 00:28 | 24.02400 | -150.52484 | 36167 ft | 390 kts | 246° |
| 2026-05-05 00:29 | 23.99890 | -150.57745 | 36175 ft | 390 kts | 246° |
| 2026-05-05 00:29 | 23.97393 | -150.62977 | 36176 ft | 390 kts | 246° |
| 2026-05-05 00:30 | 23.94887 | -150.68225 | 36172 ft | 390 kts | 246° |
| 2026-05-05 00:30 | 23.92371 | -150.73476 | 36175 ft | 390 kts | 246° |
| 2026-05-05 00:31 | 23.89861 | -150.78728 | 36176 ft | 390 kts | 246° |
| 2026-05-05 00:31 | 23.87347 | -150.83976 | 36178 ft | 390 kts | 246° |
| 2026-05-05 00:32 | 23.84842 | -150.89181 | 36167 ft | 390 kts | 246° |
| 2026-05-05 00:32 | 23.82315 | -150.94417 | 36171 ft | 389 kts | 246° |
| 2026-05-05 00:33 | 23.79792 | -150.99654 | 36170 ft | 389 kts | 246° |
| 2026-05-05 00:33 | 23.77273 | -151.04884 | 36172 ft | 389 kts | 246° |
| 2026-05-05 00:34 | 23.74755 | -151.10111 | 36168 ft | 389 kts | 246° |
| 2026-05-05 00:34 | 23.72235 | -151.15336 | 36167 ft | 389 kts | 246° |
| 2026-05-05 00:35 | 23.69718 | -151.20560 | 36171 ft | 389 kts | 246° |
| 2026-05-05 00:35 | 23.67193 | -151.25775 | 36153 ft | 389 kts | 246° |
| 2026-05-05 00:36 | 23.64664 | -151.30977 | 36154 ft | 389 kts | 246° |
| 2026-05-05 00:36 | 23.62557 | -151.35319 | 36157 ft | 389 kts | 246° |